Terminal Aerodrome Forecast
Issued by NWS

Home | Current Version | Previous Version | Text Only | Print | Product List | Glossary Off
Versions: 1 2 3 4 5 6 7 8 9 10 11 12 13 14 15 16 17 18 19 20 21 22 23 24 25 26 27 28 29 30 31 32 33 34 35 36 37 38 39 40 41 42 43 44 45 46 47 48 49 50

000
FTUS43 KLOT 230500
TAFGYY
TAF
KGYY 230520Z 2306/2406 12012KT 2SM -RADZ BR SCT008 OVC015
     FM231000 15010KT 5SM BR OVC008
     FM231200 19010KT 6SM BR OVC010
     FM231600 21012G18KT P6SM BKN020
     FM240000 20007KT P6SM BKN020=

USA.gov is the U.S. government's official web portal to all federal, state and local government web resources and services.